Time;durP1;ratioP1;P1;durP2;ratioP2;P2;SDS_P1;SDS_P2;PMS_P1;PMS_P2;Temp;Humidity;BMP_temperature;BMP_pressure;BME280_temperature;BME280_humidity;BME280_pressure;Samples;Min_cycle;Max_cycle;Signal;HPM_P1;HPM_P2
2022/05/18 00:00:59;;;;;;;;;7.00;7.00;;;;;23.73;59.74;101639.75;2397536;28;46308;-79
2022/05/18 00:02:10;;;;;;;;;9.25;9.25;;;;;23.72;59.86;101638.03;2398938;28;44698;-78
2022/05/18 00:03:27;;;;;;;;;11.25;8.25;;;;;23.71;59.59;101642.53;2392672;28;46689;-79
2022/05/18 00:04:37;;;;;;;;;6.75;6.75;;;;;23.69;59.03;101639.13;2392905;28;45239;-78
2022/05/18 00:05:48;;;;;;;;;9.00;6.50;;;;;23.67;58.12;101646.44;2401114;28;47829;-78
2022/05/18 00:06:58;;;;;;;;;8.25;6.00;;;;;23.64;56.40;101635.06;2398960;28;45261;-78
2022/05/18 00:08:09;;;;;;;;;5.50;5.50;;;;;23.62;56.99;101637.88;2392668;28;45188;-78
2022/05/18 00:09:20;;;;;;;;;6.25;5.00;;;;;23.61;57.51;101638.84;2392792;28;44620;-78
2022/05/18 00:10:30;;;;;;;;;4.25;4.25;;;;;23.62;56.77;101637.00;2391654;28;46551;-78
2022/05/18 00:11:40;;;;;;;;;7.00;6.75;;;;;23.63;57.00;101641.41;2392224;28;44693;-78
2022/05/18 00:12:51;;;;;;;;;5.75;5.50;;;;;23.65;58.14;101643.03;2392522;28;45201;-78
2022/05/18 00:14:01;;;;;;;;;8.50;6.00;;;;;23.68;58.50;101653.50;2392610;28;45477;-78
2022/05/18 00:15:14;;;;;;;;;8.25;6.00;;;;;23.70;57.46;101645.34;2401045;28;48040;-79
2022/05/18 00:16:26;;;;;;;;;6.00;6.00;;;;;23.71;56.92;101649.75;2405799;28;45383;-78
2022/05/18 00:17:37;;;;;;;;;6.75;6.00;;;;;23.69;57.79;101640.94;2392638;28;46215;-78
2022/05/18 00:18:47;;;;;;;;;6.50;6.50;;;;;23.71;57.65;101644.38;2392668;28;44722;-78
2022/05/18 00:19:57;;;;;;;;;5.75;5.75;;;;;23.71;58.29;101649.75;2391829;28;46435;-78
2022/05/18 00:21:08;;;;;;;;;6.00;6.00;;;;;23.73;57.73;101639.75;2392150;28;45252;-78
2022/05/18 00:22:18;;;;;;;;;6.00;5.00;;;;;23.72;58.40;101643.41;2391740;28;47064;-77
2022/05/18 00:23:29;;;;;;;;;6.75;6.75;;;;;23.71;57.71;101641.69;2392106;28;46880;-77
2022/05/18 00:24:39;;;;;;;;;7.00;5.00;;;;;23.72;57.11;101632.69;2392620;28;45270;-77
2022/05/18 00:25:49;;;;;;;;;8.00;7.00;;;;;23.72;57.54;101648.78;2392525;28;45224;-77
2022/05/18 00:27:03;;;;;;;;;7.00;5.75;;;;;23.71;56.46;101647.06;2392429;28;46197;-77
2022/05/18 00:28:13;;;;;;;;;7.00;7.00;;;;;23.71;56.55;101644.38;2392582;28;45318;-77
2022/05/18 00:29:24;;;;;;;;;5.00;4.00;;;;;23.70;56.36;101651.59;2392242;28;45488;-78
2022/05/18 00:30:38;;;;;;;;;6.00;5.75;;;;;23.71;56.63;101645.22;2392745;28;45533;-78
2022/05/18 00:31:49;;;;;;;;;6.50;4.75;;;;;23.72;56.29;101648.78;2401469;28;45412;-79
2022/05/18 00:33:03;;;;;;;;;6.75;5.25;;;;;23.71;56.26;101658.66;2399390;28;45215;-79
2022/05/18 00:34:14;;;;;;;;;5.75;5.75;;;;;23.69;56.15;101660.59;2392471;28;46276;-80
2022/05/18 00:35:25;;;;;;;;;6.25;6.25;;;;;23.68;56.25;101660.72;2392173;28;44795;-79
2022/05/18 00:36:35;;;;;;;;;6.00;6.00;;;;;23.70;56.33;101661.47;2392357;28;45389;-79
2022/05/18 00:37:46;;;;;;;;;6.00;6.00;;;;;23.68;56.27;101653.50;2392453;28;45288;-79
2022/05/18 00:38:56;;;;;;;;;5.00;5.00;;;;;23.70;56.34;101658.78;2401087;28;47707;-78
2022/05/18 00:40:09;;;;;;;;;7.25;6.75;;;;;23.72;56.16;101667.56;2399679;28;45282;-78
2022/05/18 00:41:22;;;;;;;;;9.00;5.25;;;;;23.71;56.08;101663.16;2398338;28;45345;-81
2022/05/18 00:42:33;;;;;;;;;4.75;4.75;;;;;23.70;56.08;101667.69;2392436;28;45417;-80
2022/05/18 00:43:43;;;;;;;;;6.50;6.50;;;;;23.70;56.02;101666.81;2391366;28;47212;-80
2022/05/18 00:44:55;;;;;;;;;6.25;6.25;;;;;23.67;55.82;101662.53;2391596;28;45310;-81
2022/05/18 00:46:09;;;;;;;;;6.00;6.00;;;;;23.70;56.25;101672.19;2394081;28;45547;-80
2022/05/18 00:47:20;;;;;;;;;7.00;6.00;;;;;23.71;56.17;101676.56;2402541;28;45205;-80
2022/05/18 00:48:31;;;;;;;;;6.00;6.00;;;;;23.71;56.22;101669.38;2391531;28;48143;-81
2022/05/18 00:49:46;;;;;;;;;6.00;5.25;;;;;23.73;56.22;101677.31;2392134;28;45245;-81
2022/05/18 00:51:01;;;;;;;;;7.50;7.00;;;;;23.74;56.26;101675.47;2392363;28;46548;-81
2022/05/18 00:52:13;;;;;;;;;8.25;6.50;;;;;23.71;56.74;101676.56;2392485;28;45213;-80
2022/05/18 00:53:27;;;;;;;;;5.00;5.00;;;;;23.68;56.11;101674.97;2392191;28;45667;-80
2022/05/18 00:54:37;;;;;;;;;6.50;6.00;;;;;23.68;56.34;101677.66;2392572;28;45185;-80
2022/05/18 00:56:01;;;;;;;;;7.50;6.50;;;;;23.69;56.42;101682.06;2392093;28;46282;-81
2022/05/18 00:57:24;;;;;;;;;7.25;6.75;;;;;23.69;56.61;101675.84;2400420;28;44819;-81
2022/05/18 00:59:08;;;;;;;;;9.00;6.00;;;;;23.72;56.44;101675.63;2396699;28;45565;-81
2022/05/18 01:00:20;;;;;;;;;6.25;5.75;;;;;23.72;56.78;101670.25;2391723;28;44657;-81
2022/05/18 01:01:30;;;;;;;;;7.25;7.25;;;;;23.74;56.54;101676.34;2395622;28;45479;-81
2022/05/18 01:02:46;;;;;;;;;7.00;6.75;;;;;23.76;56.63;101678.91;2399591;28;45219;-81
2022/05/18 01:03:57;;;;;;;;;8.50;7.00;;;;;23.77;56.50;101677.94;2392453;28;45447;-81
2022/05/18 01:05:13;;;;;;;;;8.00;6.25;;;;;23.74;56.36;101683.53;2391485;28;45309;-81
2022/05/18 01:06:23;;;;;;;;;7.00;7.00;;;;;23.75;56.57;101678.06;2391662;28;45364;-81
2022/05/18 01:07:39;;;;;;;;;8.25;5.25;;;;;23.73;56.72;101685.34;2391684;28;45310;-80
2022/05/18 01:08:59;;;;;;;;;6.25;5.75;;;;;23.74;56.06;101683.53;2391872;28;45310;-80
2022/05/18 01:10:10;;;;;;;;;6.25;6.00;;;;;23.70;56.67;101691.84;2392247;28;45212;-80
2022/05/18 01:11:21;;;;;;;;;6.00;6.00;;;;;23.70;56.55;101683.78;2391907;28;45687;-81
2022/05/18 01:12:31;;;;;;;;;9.25;7.00;;;;;23.68;56.42;101690.25;2392383;28;44619;-80
2022/05/18 01:13:42;;;;;;;;;8.50;8.50;;;;;23.67;56.73;101691.19;2391946;28;45484;-80
2022/05/18 01:15:09;;;;;;;;;8.00;8.00;;;;;23.65;56.98;101685.09;2392382;28;45366;-80
2022/05/18 01:16:20;;;;;;;;;9.00;7.00;;;;;23.66;57.12;101686.78;2395082;28;47096;-80
2022/05/18 01:17:34;;;;;;;;;7.00;6.75;;;;;23.65;56.98;101699.38;2398529;28;45283;-80
2022/05/18 01:18:45;;;;;;;;;8.25;7.00;;;;;23.65;56.91;101698.50;2391915;28;46864;-81
2022/05/18 01:19:59;;;;;;;;;8.00;8.00;;;;;23.65;56.90;101702.06;2392372;28;45363;-80
2022/05/18 01:21:09;;;;;;;;;7.75;6.25;;;;;23.64;56.96;101702.16;2392072;28;45432;-81
2022/05/18 01:22:41;;;;;;;;;6.50;6.00;;;;;23.66;56.74;101702.88;2392289;28;44536;-80
2022/05/18 01:23:56;;;;;;;;;9.25;8.00;;;;;23.65;56.76;101701.19;2392012;28;45680;-81
2022/05/18 01:25:25;;;;;;;;;7.00;7.00;;;;;23.67;56.52;101709.97;2392170;28;45240;-81
2022/05/18 01:26:38;;;;;;;;;6.25;5.50;;;;;23.66;56.78;101706.44;2392193;28;46537;-81
2022/05/18 01:27:50;;;;;;;;;7.50;5.50;;;;;23.64;56.68;101699.47;2391641;28;45223;-80
2022/05/18 01:29:05;;;;;;;;;8.25;7.50;;;;;23.64;57.22;101705.69;2392046;28;45489;-81
2022/05/18 01:30:15;;;;;;;;;6.00;6.00;;;;;23.60;56.75;101694.34;2400342;28;45484;-81
2022/05/18 01:32:00;;;;;;;;;6.25;6.25;;;;;23.60;56.70;101694.34;2385553;28;45516;-81
2022/05/18 01:33:11;;;;;;;;;9.25;8.00;;;;;23.64;56.75;101691.41;2402638;28;44766;-81
2022/05/18 01:34:26;;;;;;;;;9.00;7.00;;;;;23.66;56.87;101701.06;2392183;28;46352;-81
2022/05/18 01:35:41;;;;;;;;;6.75;6.75;;;;;23.67;56.67;101697.44;2391723;28;45395;-81
2022/05/18 01:36:51;;;;;;;;;6.25;6.25;;;;;23.65;56.74;101690.47;2391792;28;46103;-81
2022/05/18 01:38:02;;;;;;;;;8.00;7.00;;;;;23.67;56.49;101704.63;2392121;28;45535;-81
2022/05/18 01:39:18;;;;;;;;;5.25;5.25;;;;;23.66;56.72;101702.88;2391852;28;45466;-81
2022/05/18 01:40:40;;;;;;;;;7.50;7.50;;;;;23.67;56.75;101710.84;2392004;28;45287;-79
2022/05/18 01:42:17;;;;;;;;;6.50;6.50;;;;;23.70;56.91;101715.13;2392089;28;45232;-79
2022/05/18 01:43:35;;;;;;;;;6.00;5.00;;;;;23.70;56.60;101712.44;2399951;28;45667;-78
2022/05/18 01:44:46;;;;;;;;;9.25;6.00;;;;;23.66;56.23;101714.47;2391950;28;46353;-78
2022/05/18 01:46:00;;;;;;;;;8.25;7.00;;;;;23.65;56.58;101712.78;2400712;28;45285;-78
2022/05/18 01:47:10;;;;;;;;;11.00;8.00;;;;;23.65;56.44;101717.28;2393362;28;46258;-78
2022/05/18 01:48:24;;;;;;;;;8.25;7.00;;;;;23.62;56.68;101712.16;2391718;28;45295;-78
2022/05/18 01:49:37;;;;;;;;;7.75;7.75;;;;;23.60;56.60;101717.63;2391852;28;45448;-78
2022/05/18 01:50:49;;;;;;;;;8.25;6.25;;;;;23.57;56.67;101718.72;2395141;28;44787;-78
2022/05/18 01:51:59;;;;;;;;;7.25;6.50;;;;;23.53;56.40;101708.31;2399280;28;47379;-78
2022/05/18 01:53:10;;;;;;;;;6.50;6.25;;;;;23.55;56.94;101709.94;2384298;28;45154;-78
2022/05/18 01:54:21;;;;;;;;;9.00;8.25;;;;;23.54;56.60;101705.50;2391233;28;46610;-78
2022/05/18 01:55:32;;;;;;;;;11.00;8.00;;;;;23.54;56.96;101715.38;2391847;28;45219;-78
2022/05/18 01:56:43;;;;;;;;;6.75;5.75;;;;;23.54;57.12;101708.19;2391802;28;45454;-80
2022/05/18 01:57:53;;;;;;;;;9.00;6.00;;;;;23.51;56.68;101700.38;2393338;28;45618;-80
2022/05/18 01:59:05;;;;;;;;;8.00;8.00;;;;;23.51;57.08;101705.72;2392954;28;45378;-79
2022/05/18 02:00:15;;;;;;;;;7.75;6.75;;;;;23.47;56.87;101705.09;2393444;28;45380;-79
2022/05/18 02:01:26;;;;;;;;;7.00;6.00;;;;;23.47;57.18;101704.22;2393375;28;46357;-79
2022/05/18 02:02:38;;;;;;;;;5.75;5.25;;;;;23.44;57.19;101699.94;2394648;28;44804;-81
2022/05/18 02:03:49;;;;;;;;;7.50;7.00;;;;;23.45;56.77;101712.41;2392454;28;45329;-82
2022/05/18 02:04:59;;;;;;;;;5.75;5.75;;;;;23.45;56.96;101714.22;2392886;28;44639;-82
2022/05/18 02:06:10;;;;;;;;;7.50;7.00;;;;;23.47;56.92;101715.81;2396494;28;45245;-82
2022/05/18 02:07:20;;;;;;;;;6.75;6.75;;;;;23.47;57.32;101718.50;2401998;28;45260;-82
2022/05/18 02:08:31;;;;;;;;;7.75;7.00;;;;;23.48;56.63;101716.69;2392568;28;45886;-78
2022/05/18 02:09:41;;;;;;;;;6.00;5.75;;;;;23.51;57.28;101723.69;2404492;28;45300;-77
2022/05/18 02:10:52;;;;;;;;;7.25;7.00;;;;;23.48;57.30;101719.38;2405849;27;46454;-77
2022/05/18 02:12:04;;;;;;;;;7.50;7.00;;;;;23.45;57.60;101723.13;2393509;28;44715;-77
2022/05/18 02:13:15;;;;;;;;;8.50;6.25;;;;;23.41;57.21;101724.28;2383973;28;46481;-77
2022/05/18 02:14:26;;;;;;;;;8.00;8.00;;;;;23.35;57.69;101725.63;2392809;28;44897;-77
2022/05/18 02:15:37;;;;;;;;;9.50;8.00;;;;;23.33;57.25;101727.56;2392884;28;45506;-77
2022/05/18 02:16:48;;;;;;;;;8.75;7.50;;;;;23.32;57.47;101736.56;2393510;28;45160;-77
2022/05/18 02:17:58;;;;;;;;;3.25;2.50;;;;;23.32;57.14;101736.56;2395625;28;45518;-77
2022/05/18 02:19:09;;;;;;;;;8.00;5.75;;;;;23.29;57.56;101739.44;2393346;28;45137;-77
2022/05/18 02:20:20;;;;;;;;;8.50;7.75;;;;;23.29;57.74;101752.00;2393275;28;45301;-77
2022/05/18 02:21:30;;;;;;;;;8.25;7.25;;;;;23.27;57.64;101742.25;2393356;28;45232;-77
2022/05/18 02:22:41;;;;;;;;;8.00;8.00;;;;;23.25;57.31;101748.69;2393029;28;45350;-77
2022/05/18 02:23:51;;;;;;;;;8.00;6.25;;;;;23.24;58.11;101750.50;2401923;28;45248;-77
2022/05/18 02:25:03;;;;;;;;;8.25;6.75;;;;;23.24;58.05;101750.50;2399323;28;47535;-77
2022/05/18 02:26:18;;;;;;;;;7.00;7.00;;;;;23.22;57.90;101746.22;2392857;28;45281;-77
2022/05/18 02:27:29;;;;;;;;;10.25;8.50;;;;;23.19;58.08;101757.19;2393275;28;45457;-76
2022/05/18 02:28:41;;;;;;;;;8.25;6.25;;;;;23.16;58.18;101755.59;2393149;28;45248;-76
2022/05/18 02:29:51;;;;;;;;;8.00;7.25;;;;;23.14;58.07;101763.72;2393043;28;45907;-76
2022/05/18 02:31:02;;;;;;;;;6.25;5.75;;;;;23.13;58.08;101759.34;2395262;28;45446;-76
2022/05/18 02:32:12;;;;;;;;;9.75;7.00;;;;;23.12;58.06;101764.78;2399347;28;45689;-76
2022/05/18 02:33:23;;;;;;;;;7.25;7.25;;;;;23.10;58.41;101767.59;2413999;28;45451;-76
2022/05/18 02:34:33;;;;;;;;;13.00;7.75;;;;;23.07;59.03;101765.13;2417807;28;46276;-76
2022/05/18 02:35:43;;;;;;;;;9.00;7.25;;;;;23.04;58.52;101762.66;2395147;28;45316;-76
2022/05/18 02:36:54;;;;;;;;;6.75;5.25;;;;;23.02;58.49;101759.22;2399365;28;46289;-76
2022/05/18 02:38:04;;;;;;;;;5.25;5.00;;;;;23.02;57.99;101764.59;2392558;28;44718;-76
2022/05/18 02:39:15;;;;;;;;;7.00;7.00;;;;;22.99;58.36;101764.81;2392522;28;45666;-76
2022/05/18 02:40:25;;;;;;;;;7.25;6.50;;;;;22.97;58.61;101772.09;2401823;28;45357;-76
2022/05/18 02:41:35;;;;;;;;;8.75;8.00;;;;;22.92;59.37;101772.41;2410711;28;46127;-76
2022/05/18 02:42:46;;;;;;;;;6.50;6.00;;;;;22.86;59.04;101771.03;2406206;28;45303;-76
2022/05/18 02:43:59;;;;;;;;;6.00;6.00;;;;;22.84;58.79;101783.66;2392806;28;46071;-76
2022/05/18 02:45:10;;;;;;;;;5.00;5.00;;;;;22.78;58.63;101784.97;2393240;28;45244;-76
2022/05/18 02:46:21;;;;;;;;;9.00;7.25;;;;;22.78;58.83;101778.75;2394874;28;47012;-76
2022/05/18 02:47:32;;;;;;;;;9.00;6.00;;;;;22.75;59.04;101787.84;2395222;28;45232;-76
2022/05/18 02:48:43;;;;;;;;;4.75;4.75;;;;;22.75;59.06;101785.16;2399923;28;47361;-78
2022/05/18 02:49:53;;;;;;;;;6.00;6.00;;;;;22.75;59.25;101795.03;2399392;28;45343;-78
2022/05/18 02:51:05;;;;;;;;;8.00;6.75;;;;;22.73;59.44;101796.94;2393201;28;46508;-76
2022/05/18 02:52:15;;;;;;;;;8.50;7.50;;;;;22.69;59.08;101791.78;2393238;28;45169;-76
2022/05/18 02:53:26;;;;;;;;;7.00;6.25;;;;;22.67;59.38;101793.69;2392646;28;45431;-76
2022/05/18 02:56:08;;;;;;;;;5.00;5.00;;;;;22.64;59.62;101793.94;2392983;28;45308;-79
2022/05/18 02:57:21;;;;;;;;;9.00;6.25;;;;;22.62;59.04;101790.47;2392982;28;45161;-79
2022/05/18 02:58:37;;;;;;;;;6.50;5.00;;;;;22.58;59.46;101787.16;2392785;28;45423;-79
2022/05/18 02:59:47;;;;;;;;;5.50;5.00;;;;;22.56;58.87;101785.53;2393169;28;45197;-79
2022/05/18 03:00:58;;;;;;;;;4.25;4.25;;;;;22.54;59.34;101791.00;2392926;28;45500;-80
2022/05/18 03:02:08;;;;;;;;;9.00;6.00;;;;;22.54;59.52;101795.50;2393211;28;45222;-80
2022/05/18 03:03:19;;;;;;;;;5.50;5.50;;;;;22.52;59.46;101800.13;2400667;28;45257;-80
2022/05/18 03:04:30;;;;;;;;;5.50;4.75;;;;;22.49;58.99;101806.53;2393757;28;45425;-79
2022/05/18 03:05:40;;;;;;;;;5.50;5.00;;;;;22.43;58.55;101801.56;2392194;28;47643;-80
2022/05/18 03:06:51;;;;;;;;;3.00;3.00;;;;;22.41;58.60;101804.38;2407512;28;45227;-79
2022/05/18 03:08:01;;;;;;;;;4.00;4.00;;;;;22.35;58.45;101794.03;2391496;28;47107;-79
2022/05/18 03:09:12;;;;;;;;;3.75;3.00;;;;;22.27;58.29;101791.91;2392582;28;45383;-80
2022/05/18 03:10:22;;;;;;;;;4.75;4.25;;;;;22.23;58.33;101788.56;2392726;28;46306;-80
2022/05/18 03:11:33;;;;;;;;;5.00;4.00;;;;;22.23;58.63;101795.72;2393081;28;45168;-80
2022/05/18 03:12:46;;;;;;;;;7.00;4.25;;;;;22.18;58.66;101788.00;2392893;28;45356;-80
2022/05/18 03:13:56;;;;;;;;;2.25;2.25;;;;;22.14;58.77;101789.19;2392788;28;45454;-80
2022/05/18 03:15:07;;;;;;;;;4.00;4.00;;;;;22.11;58.36;101792.03;2392087;28;47383;-79
2022/05/18 03:16:18;;;;;;;;;3.50;2.25;;;;;22.08;58.52;101781.53;2392302;28;44718;-80
2022/05/18 03:17:28;;;;;;;;;3.00;3.00;;;;;22.04;58.28;101780.91;2392885;28;46569;-80
2022/05/18 03:18:39;;;;;;;;;4.50;3.50;;;;;22.01;58.45;101783.75;2401930;28;45252;-80
2022/05/18 03:19:49;;;;;;;;;6.50;3.25;;;;;21.98;58.51;101787.50;2395192;28;46192;-80
2022/05/18 03:23:58;;;;;;;;;3.00;3.00;;;;;21.90;58.67;101781.81;2393033;28;44653;-78
2022/05/18 03:25:08;;;;;;;;;4.00;4.00;;;;;21.86;58.86;101786.47;2392666;28;45549;-78
2022/05/18 03:26:22;;;;;;;;;4.00;3.00;;;;;21.86;58.56;101796.28;2393074;28;45169;-80
2022/05/18 03:27:32;;;;;;;;;2.00;2.00;;;;;21.81;58.16;101797.47;2401482;28;46088;-79
2022/05/18 03:28:45;;;;;;;;;4.25;2.00;;;;;21.79;58.06;101795.84;2399282;28;45294;-78
2022/05/18 03:29:56;;;;;;;;;2.50;2.50;;;;;21.73;58.22;101799.75;2392627;28;46234;-78
2022/05/18 03:31:06;;;;;;;;;4.50;3.75;;;;;21.73;58.73;101801.59;2392894;28;44677;-77
2022/05/18 03:32:17;;;;;;;;;5.50;4.00;;;;;21.72;58.47;101803.41;2392950;28;45230;-78
2022/05/18 03:33:27;;;;;;;;;2.25;2.25;;;;;21.74;58.61;101809.50;2398428;28;45217;-80
2022/05/18 03:34:38;;;;;;;;;6.00;4.00;;;;;21.74;58.87;101804.16;2392768;28;46609;-80
2022/05/18 03:35:48;;;;;;;;;4.00;4.00;;;;;21.73;58.60;101804.28;2393002;28;44560;-82
2022/05/18 03:37:00;;;;;;;;;3.25;3.25;;;;;21.71;58.38;101812.38;2392705;28;45251;-81
2022/05/18 03:38:10;;;;;;;;;5.75;5.25;;;;;21.73;58.31;101817.66;2395976;28;45157;-81
2022/05/18 03:39:20;;;;;;;;;3.00;3.00;;;;;21.71;58.66;101815.06;2400267;28;46326;-81
2022/05/18 03:40:36;;;;;;;;;4.50;3.25;;;;;21.72;58.54;101819.47;2389344;28;44568;-81
2022/05/18 03:41:47;;;;;;;;;5.00;4.00;;;;;21.73;58.59;101813.13;2390170;28;46486;-82
2022/05/18 03:42:57;;;;;;;;;6.25;4.00;;;;;21.75;58.44;101815.72;2392760;28;45473;-81
2022/05/18 03:44:08;;;;;;;;;4.00;3.00;;;;;21.77;58.75;101820.03;2392635;28;45282;-81
2022/05/18 03:45:18;;;;;;;;;4.00;4.00;;;;;21.78;58.46;101820.91;2401443;28;45273;-81
2022/05/18 03:46:28;;;;;;;;;3.25;3.00;;;;;21.75;58.45;101821.94;2399040;28;45355;-81
2022/05/18 03:47:39;;;;;;;;;3.00;3.00;;;;;21.75;58.52;101829.97;2392664;28;45220;-81
2022/05/18 03:48:49;;;;;;;;;2.00;2.00;;;;;21.73;58.32;101831.03;2395199;28;46184;-81
2022/05/18 03:49:59;;;;;;;;;6.00;3.00;;;;;21.69;58.17;101835.69;2392879;28;45172;-81
2022/05/18 03:51:12;;;;;;;;;5.00;3.00;;;;;21.64;57.85;101836.00;2392740;28;45170;-81
2022/05/18 03:52:23;;;;;;;;;3.50;3.50;;;;;21.61;57.76;101833.50;2392270;28;44702;-80
2022/05/18 03:53:34;;;;;;;;;2.50;1.50;;;;;21.62;57.71;101842.41;2391964;28;45490;-81
2022/05/18 03:54:44;;;;;;;;;3.50;2.25;;;;;21.57;58.19;101840.88;2401316;28;45302;-80
2022/05/18 03:55:55;;;;;;;;;2.00;2.00;;;;;21.57;57.86;101843.56;2396321;28;46325;-81
2022/05/18 03:57:08;;;;;;;;;2.25;2.00;;;;;21.54;57.78;101840.19;2390007;28;44759;-81
2022/05/18 03:58:18;;;;;;;;;3.00;3.00;;;;;21.55;58.01;101841.94;2392287;28;45459;-80
2022/05/18 03:59:29;;;;;;;;;1.25;1.25;;;;;21.56;57.76;101846.31;2392733;28;44655;-79
2022/05/18 04:00:45;;;;;;;;;3.00;3.00;;;;;21.53;58.02;101847.34;2392637;28;46257;-79
2022/05/18 04:01:55;;;;;;;;;2.00;2.00;;;;;21.48;58.20;101844.97;2392608;28;45300;-79
2022/05/18 04:03:07;;;;;;;;;4.00;3.00;;;;;21.47;58.47;101847.75;2400739;28;49035;-79
2022/05/18 04:04:18;;;;;;;;;1.00;0.00;;;;;21.45;58.53;101847.84;2382830;28;45304;-80
2022/05/18 04:05:28;;;;;;;;;6.00;5.00;;;;;21.44;58.50;101854.16;2391713;28;46391;-79
2022/05/18 04:06:39;;;;;;;;;4.75;4.25;;;;;21.42;58.58;101853.38;2392268;28;45500;-80
2022/05/18 04:07:50;;;;;;;;;3.50;3.50;;;;;21.43;58.46;101857.78;2392692;28;45201;-79
2022/05/18 04:09:00;;;;;;;;;4.00;4.00;;;;;21.42;58.49;101863.22;2392751;28;45241;-79
2022/05/18 04:10:10;;;;;;;;;3.25;3.25;;;;;21.41;58.80;101864.19;2392377;28;46183;-79
2022/05/18 04:11:21;;;;;;;;;3.75;3.50;;;;;21.43;58.61;101864.94;2392692;28;44737;-79
2022/05/18 04:12:31;;;;;;;;;3.00;3.00;;;;;21.42;58.24;101857.88;2392596;28;45422;-79
2022/05/18 04:13:42;;;;;;;;;3.00;2.00;;;;;21.39;58.30;101864.25;2399624;28;45498;-79
2022/05/18 04:14:54;;;;;;;;;1.25;1.25;;;;;21.38;57.69;101862.56;2407696;27;48272;-80
2022/05/18 04:16:05;;;;;;;;;3.00;2.00;;;;;21.39;57.56;101874.09;2407882;28;44694;-80
2022/05/18 04:17:15;;;;;;;;;3.00;2.00;;;;;21.33;57.71;101867.31;2392504;28;45546;-80
2022/05/18 04:18:26;;;;;;;;;2.00;2.00;;;;;21.31;57.34;101863.91;2397845;28;45494;-80
2022/05/18 04:19:37;;;;;;;;;4.75;3.00;;;;;21.27;57.22;101868.56;2393128;28;46234;-80
2022/05/18 04:20:49;;;;;;;;;1.00;1.00;;;;;21.23;57.45;101875.03;2392541;28;45231;-80
2022/05/18 04:21:59;;;;;;;;;2.25;2.25;;;;;21.23;57.38;101877.72;2392521;28;46622;-80
2022/05/18 04:23:11;;;;;;;;;2.00;2.00;;;;;21.18;57.24;101871.78;2392569;28;45382;-80
2022/05/18 04:24:21;;;;;;;;;2.00;1.00;;;;;21.13;56.80;101866.72;2392537;28;46304;-77
2022/05/18 04:25:32;;;;;;;;;1.00;1.00;;;;;21.12;57.12;101875.69;2392622;28;45222;-77
2022/05/18 04:26:42;;;;;;;;;1.00;1.00;;;;;21.10;56.75;101874.91;2401085;28;48102;-76
2022/05/18 04:27:54;;;;;;;;;1.00;1.00;;;;;21.10;56.22;101873.13;2398512;28;45387;-76
2022/05/18 04:29:04;;;;;;;;;1.00;1.00;;;;;21.07;56.38;101875.97;2392262;28;45311;-76
2022/05/18 04:30:19;;;;;;;;;1.00;1.00;;;;;21.08;56.55;101875.03;2392411;28;44756;-76
2022/05/18 04:31:30;;;;;;;;;1.00;1.00;;;;;21.08;56.00;101876.84;2393047;28;45469;-76
2022/05/18 04:32:40;;;;;;;;;1.00;1.00;;;;;21.06;56.31;101881.41;2397832;28;45689;-76
2022/05/18 04:33:51;;;;;;;;;1.00;1.00;;;;;21.02;56.06;101868.22;2395014;28;45479;-76
2022/05/18 04:35:01;;;;;;;;;1.00;1.00;;;;;21.02;56.56;101870.91;2389458;28;44783;-76
2022/05/18 04:36:11;;;;;;;;;1.00;1.00;;;;;21.04;56.31;101880.66;2391531;28;47208;-76
2022/05/18 04:37:22;;;;;;;;;1.00;1.00;;;;;21.04;56.32;101878.81;2391809;28;44812;-76
2022/05/18 04:38:33;;;;;;;;;1.00;0.00;;;;;21.05;56.27;101877.88;2394147;28;45413;-76
2022/05/18 04:39:44;;;;;;;;;0.75;0.75;;;;;21.07;55.77;101877.78;2390823;28;45436;-75
2022/05/18 04:40:55;;;;;;;;;1.00;1.00;;;;;21.08;55.95;101879.50;2389191;28;46521;-76
2022/05/18 04:42:06;;;;;;;;;1.00;1.00;;;;;21.05;56.03;101880.53;2389328;28;45236;-76
2022/05/18 04:43:18;;;;;;;;;1.00;1.00;;;;;21.05;55.61;101880.53;2389503;28;46262;-76
2022/05/18 04:44:28;;;;;;;;;2.50;1.00;;;;;21.04;55.11;101884.16;2391332;28;45468;-75
2022/05/18 04:45:44;;;;;;;;;1.00;1.00;;;;;21.01;55.34;101887.03;2391275;28;47185;-76
2022/05/18 04:46:56;;;;;;;;;1.75;1.00;;;;;20.96;55.44;101881.06;2382482;28;45327;-76
2022/05/18 04:48:06;;;;;;;;;2.25;1.00;;;;;20.93;55.89;101890.13;2387886;28;48051;-76
2022/05/18 04:49:17;;;;;;;;;2.00;1.00;;;;;20.92;55.58;101889.25;2398115;28;45267;-76
2022/05/18 04:50:27;;;;;;;;;1.00;1.00;;;;;20.91;55.72;101887.53;2400933;28;47231;-76
2022/05/18 04:51:38;;;;;;;;;1.00;1.00;;;;;20.91;56.11;101890.19;2397950;28;45261;-76
2022/05/18 04:52:48;;;;;;;;;1.75;1.00;;;;;20.91;55.58;101884.84;2389512;28;46324;-76
2022/05/18 04:53:59;;;;;;;;;1.00;0.00;;;;;20.91;55.41;101892.03;2391475;28;45276;-75
2022/05/18 04:55:10;;;;;;;;;1.00;1.00;;;;;20.88;55.66;101895.75;2392187;28;45668;-75
2022/05/18 04:56:20;;;;;;;;;1.00;1.00;;;;;20.82;55.86;101893.41;2391499;28;45235;-75
2022/05/18 04:57:31;;;;;;;;;1.50;1.50;;;;;20.79;55.89;101901.63;2391507;28;45312;-75
2022/05/18 04:58:41;;;;;;;;;2.00;1.00;;;;;20.78;55.52;101900.75;2392492;28;45223;-75
2022/05/18 04:59:52;;;;;;;;;2.00;1.00;;;;;20.76;56.10;101907.16;2392228;28;45444;-76
2022/05/18 05:01:05;;;;;;;;;1.00;1.00;;;;;20.75;55.88;101900.06;2392471;28;45323;-76
2022/05/18 05:02:16;;;;;;;;;1.00;1.00;;;;;20.75;56.05;101908.09;2392029;28;45516;-75
2022/05/18 05:03:27;;;;;;;;;2.75;0.00;;;;;20.74;55.67;101911.72;2391071;28;45473;-75
2022/05/18 05:04:37;;;;;;;;;3.00;1.00;;;;;20.67;55.95;101909.38;2396657;28;46503;-76
2022/05/18 05:05:47;;;;;;;;;2.25;2.00;;;;;20.66;55.95;101912.16;2392644;28;44752;-75
2022/05/18 05:06:58;;;;;;;;;2.00;1.25;;;;;20.64;56.14;101912.22;2392171;28;45963;-75
2022/05/18 05:08:08;;;;;;;;;2.00;1.00;;;;;20.65;55.96;101915.75;2391938;28;45235;-75
2022/05/18 05:09:22;;;;;;;;;2.75;1.25;;;;;20.68;56.31;101921.81;2391567;28;45377;-75
2022/05/18 05:10:32;;;;;;;;;1.25;0.00;;;;;20.67;56.13;101924.53;2392397;28;45399;-75
2022/05/18 05:11:43;;;;;;;;;1.50;1.50;;;;;20.65;56.26;101916.63;2392252;28;45425;-76
2022/05/18 05:12:53;;;;;;;;;1.75;1.75;;;;;20.64;56.12;101919.41;2392403;28;44606;-76
2022/05/18 05:14:05;;;;;;;;;1.00;1.00;;;;;20.62;56.28;101924.81;2391748;28;46358;-76
2022/05/18 05:15:16;;;;;;;;;0.00;0.00;;;;;20.63;56.12;101921.22;2392437;28;45326;-76
2022/05/18 05:16:28;;;;;;;;;2.00;2.00;;;;;20.66;56.38;101917.50;2392135;28;45336;-77
2022/05/18 05:17:39;;;;;;;;;1.00;1.00;;;;;20.67;55.94;101917.41;2392064;28;45183;-78
2022/05/18 05:18:49;;;;;;;;;2.50;1.00;;;;;20.69;56.33;101923.50;2391846;28;46514;-77
2022/05/18 05:19:59;;;;;;;;;1.25;1.25;;;;;20.73;56.29;101920.66;2393315;28;44751;-77
2022/05/18 05:21:10;;;;;;;;;1.50;1.50;;;;;20.75;56.10;101924.97;2391593;28;45569;-77
2022/05/18 05:22:20;;;;;;;;;2.00;2.00;;;;;20.74;56.38;101925.91;2392478;28;45161;-76
2022/05/18 05:23:32;;;;;;;;;1.75;1.00;;;;;20.75;56.08;101926.78;2391168;28;45322;-76
2022/05/18 05:24:43;;;;;;;;;1.00;1.00;;;;;20.77;56.03;101930.22;2392517;28;45782;-76
2022/05/18 05:25:55;;;;;;;;;2.50;2.00;;;;;20.79;55.93;101920.34;2390231;28;46202;-76
2022/05/18 05:27:05;;;;;;;;;2.25;1.25;;;;;20.79;56.06;101926.50;2392105;28;45261;-77
2022/05/18 05:28:15;;;;;;;;;0.25;0.25;;;;;20.82;55.95;101927.31;2391771;28;46475;-77
2022/05/18 05:29:26;;;;;;;;;1.00;1.00;;;;;20.81;55.97;101926.44;2390929;28;44731;-77
2022/05/18 05:30:37;;;;;;;;;2.00;2.00;;;;;20.78;55.85;101927.47;2392115;28;46085;-76
2022/05/18 05:31:47;;;;;;;;;2.50;2.00;;;;;20.77;56.00;101927.53;2394019;28;45292;-77
2022/05/18 05:32:57;;;;;;;;;2.75;2.00;;;;;20.78;56.10;101931.97;2393984;28;45459;-76
2022/05/18 05:34:08;;;;;;;;;3.00;2.00;;;;;20.75;55.14;101930.31;2389431;28;45264;-77
2022/05/18 05:35:18;;;;;;;;;3.00;2.00;;;;;20.72;55.91;101935.00;2397662;28;45229;-76
2022/05/18 05:36:29;;;;;;;;;2.50;2.50;;;;;20.70;56.03;101937.72;2392292;28;45231;-77
2022/05/18 05:37:40;;;;;;;;;2.25;2.25;;;;;20.69;55.82;101947.56;2391082;28;48228;-77
2022/05/18 05:38:50;;;;;;;;;1.50;1.50;;;;;20.69;55.67;101947.56;2391438;28;45465;-76